createdAt,value
2023-01-19T00:08:15.901Z,52.75
2023-01-19T00:18:17.483Z,59.77
2023-01-19T00:28:19.191Z,54.83
2023-01-19T00:38:21.441Z,58.53
2023-01-19T00:48:22.941Z,59.03
2023-01-19T00:58:24.438Z,60.10
2023-01-19T01:08:25.975Z,63.70
2023-01-19T01:18:27.522Z,68.03
2023-01-19T01:28:29.083Z,63.33
2023-01-19T01:38:30.623Z,67.67
2023-01-19T01:48:32.282Z,64.85
2023-01-19T01:58:34.263Z,63.33
2023-01-19T02:08:42.734Z,68.73
2023-01-19T02:18:44.303Z,69.03
2023-01-19T02:28:50.352Z,65.80
2023-01-19T02:38:55.056Z,70.80
2023-01-19T02:49:00.635Z,67.97
2023-01-19T02:59:33.129Z,69.03
2023-01-19T03:10:00.795Z,66.37
2023-01-19T03:20:05.332Z,65.78
2023-01-19T03:30:13.134Z,71.37
2023-01-19T03:40:14.849Z,73.43
2023-01-19T03:50:25.610Z,70.10
2023-01-19T04:00:27.234Z,82.93
2023-01-19T04:10:28.775Z,69.63
2023-01-19T04:20:30.293Z,69.50
2023-01-19T04:30:31.845Z,60.97
2023-01-19T04:40:33.390Z,50.37
2023-01-19T04:50:34.957Z,45.93
2023-01-19T05:00:37.530Z,38.23
2023-01-19T05:10:39.096Z,35.40
2023-01-19T05:20:40.636Z,31.73
2023-01-19T05:30:42.195Z,32.33
2023-01-19T05:40:43.752Z,30.90
2023-01-19T05:50:45.255Z,31.10
2023-01-19T06:00:46.983Z,23.07
2023-01-19T06:10:48.520Z,20.70
2023-01-19T06:20:50.025Z,20.08
2023-01-19T06:30:52.993Z,20.43
2023-01-19T06:40:56.633Z,19.20
2023-01-19T06:50:59.749Z,18.10
2023-01-19T07:01:02.617Z,19.57
2023-01-19T07:11:22.250Z,20.05
2023-01-19T07:21:29.474Z,19.33
2023-01-19T07:31:31.084Z,20.00
2023-01-19T07:41:32.642Z,16.35
2023-01-19T07:51:34.377Z,16.63
2023-01-19T08:01:36.001Z,16.83
2023-01-19T08:11:37.865Z,19.33
2023-01-19T08:21:39.417Z,17.17
2023-01-19T08:31:41.659Z,16.07
2023-01-19T08:41:43.409Z,23.60
2023-01-19T08:51:44.963Z,21.33
2023-01-19T09:01:46.927Z,22.57
2023-01-19T09:11:48.607Z,23.17
2023-01-19T09:21:50.129Z,23.50
2023-01-19T09:31:51.684Z,24.03
2023-01-19T09:42:07.748Z,18.00
2023-01-19T09:52:15.625Z,22.65
2023-01-19T10:02:37.078Z,24.13
2023-01-19T10:12:44.459Z,23.77
2023-01-19T10:22:49.291Z,25.58
2023-01-19T10:32:51.583Z,27.37
2023-01-19T10:42:53.926Z,28.13
2023-01-19T10:52:57.996Z,24.25
2023-01-19T11:03:00.474Z,24.47
2023-01-19T11:13:05.061Z,23.37
2023-01-19T11:23:29.510Z,27.50
2023-01-19T11:33:42.263Z,26.88
2023-01-19T11:43:49.619Z,27.63
2023-01-19T11:53:52.567Z,27.27
2023-01-19T12:03:59.844Z,25.42
2023-01-19T12:14:02.309Z,19.10
2023-01-19T12:24:14.752Z,22.60
2023-01-19T12:34:25.336Z,23.58
2023-01-19T12:44:29.816Z,21.40
2023-01-19T12:54:32.383Z,16.83
2023-01-19T13:04:34.016Z,11.27
2023-01-19T13:14:37.855Z,7.83
2023-01-19T13:25:05.969Z,9.43
2023-01-19T13:35:14.600Z,11.70
2023-01-19T13:45:16.057Z,9.77
2023-01-19T13:55:17.759Z,11.60
2023-01-19T14:05:27.015Z,10.73
2023-01-19T14:15:30.438Z,8.35
2023-01-19T14:25:31.949Z,7.40
2023-01-19T14:35:33.634Z,7.30
2023-01-19T14:45:39.639Z,9.82
2023-01-19T14:56:00.712Z,8.10
2023-01-19T15:06:04.314Z,7.23
2023-01-19T15:16:06.923Z,25.00
2023-01-19T15:26:16.774Z,11.07
2023-01-19T15:36:22.556Z,8.67
2023-01-19T15:46:25.222Z,10.97
2023-01-19T15:56:28.767Z,9.52
2023-01-19T16:06:31.296Z,10.37
2023-01-19T16:16:32.979Z,10.00
2023-01-19T16:26:35.348Z,10.13
2023-01-19T16:36:39.037Z,11.53
2023-01-19T16:46:43.330Z,14.13
2023-01-19T16:56:45.287Z,12.23
2023-01-19T17:06:47.058Z,14.13
2023-01-19T17:16:48.819Z,12.43
2023-01-19T17:26:50.350Z,15.83
2023-01-19T17:36:51.870Z,15.00
2023-01-19T17:46:53.400Z,14.67
2023-01-19T17:56:54.918Z,13.57
2023-01-19T18:06:56.423Z,15.10
2023-01-19T18:16:57.928Z,19.33
2023-01-19T18:26:59.466Z,20.93
2023-01-19T18:37:00.975Z,20.00
2023-01-19T18:47:02.534Z,21.95
2023-01-19T18:57:04.103Z,20.00
2023-01-19T19:07:06.024Z,17.63
2023-01-19T19:17:07.618Z,18.25
2023-01-19T19:27:09.140Z,21.10
2023-01-19T19:37:10.696Z,19.60
2023-01-19T19:47:12.229Z,17.40
2023-01-19T19:57:13.810Z,18.47
2023-01-19T20:07:17.812Z,21.63
2023-01-19T20:17:19.528Z,23.13
2023-01-19T20:27:21.196Z,25.45
2023-01-19T20:37:22.785Z,26.63
2023-01-19T20:47:24.310Z,28.10
2023-01-19T20:57:25.908Z,24.55
2023-01-19T21:07:27.545Z,26.20
2023-01-19T21:17:29.216Z,28.97
2023-01-19T21:27:30.795Z,28.60
2023-01-19T21:37:32.404Z,28.03
2023-01-19T21:47:36.989Z,27.57
2023-01-19T21:57:38.503Z,22.70
2023-01-19T22:07:40.097Z,23.67
2023-01-19T22:17:41.663Z,28.23
2023-01-19T22:27:43.231Z,27.87
2023-01-19T22:37:44.793Z,29.88
2023-01-19T22:47:46.369Z,27.23
2023-01-19T22:57:47.876Z,28.67
2023-01-19T23:07:49.407Z,28.33
2023-01-19T23:17:50.973Z,27.70
2023-01-19T23:27:52.581Z,29.13
2023-01-19T23:37:54.153Z,27.57
2023-01-19T23:47:55.716Z,29.38
2023-01-19T23:57:57.302Z,28.43
